Terminal Aerodrome Forecast
Issued by NWS Knoxville/Tri Cities, TN

Home | Current Version | Previous Version | Text Only | Print | Product List | Glossary On
Versions: 1 2 3 4 5 6 7 8 9 10 11 12 13 14 15 16 17 18 19 20 21 22 23 24 25 26 27 28 29 30
000
FTUS44 KMRX 011736
TAFTRI
TAF
KTRI 011736Z 0118/0218 24010KT P6SM SCT045
     FM020000 00000KT P6SM SCT150 BKN250
     FM020800 00000KT 5SM BR BKN150
     FM021200 23004KT P6SM SCT045 BKN080
     FM021500 24008KT P6SM VCTS BKN040CB=

USA.gov is the U.S. government's official web portal to all federal, state and local government web resources and services.